Time;durP1;ratioP1;P1;durP2;ratioP2;P2;SDS_P1;SDS_P2;PMS_P1;PMS_P2;Temp;Humidity;BMP_temperature;BMP_pressure;BME280_temperature;BME280_humidity;BME280_pressure;Samples;Min_cycle;Max_cycle;Signal;HPM_P1;HPM_P2
2023/07/16 00:00:19;;;;;;;;;;;;;;;;;;4982321;28;19926;-64
2023/07/16 00:02:47;;;;;;;;;;;;;;;;;;4983563;28;19972;-64
2023/07/16 00:05:13;;;;;;;;;;;;;;;;;;4984793;28;19922;-64
2023/07/16 00:07:40;;;;;;;;;;;;;;;;;;4983932;28;19929;-64
2023/07/16 00:10:07;;;;;;;;;;;;;;;;;;4983892;28;20393;-64
2023/07/16 00:12:34;;;;;;;;;;;;;;;;;;4985049;28;20341;-64
2023/07/16 00:15:01;;;;;;;;;;;;;;;;;;4982933;28;19929;-64
2023/07/16 00:17:28;;;;;;;;;;;;;;;;;;4984649;28;19968;-64
2023/07/16 00:19:55;;;;;;;;;;;;;;;;;;4982710;28;19922;-64
2023/07/16 00:22:22;;;;;;;;;;;;;;;;;;4982582;28;19926;-64
2023/07/16 00:24:48;;;;;;;;;;;;;;;;;;4985400;28;19921;-64
2023/07/16 00:27:15;;;;;;;;;;;;;;;;;;4982981;28;19976;-64
2023/07/16 00:29:42;;;;;;;;;;;;;;;;;;4980277;28;20391;-64
2023/07/16 00:32:09;;;;;;;;;;;;;;;;;;4980148;28;20342;-64
2023/07/16 00:34:36;;;;;;;;;;;;;;;;;;4983832;28;19987;-64
2023/07/16 00:37:03;;;;;;;;;;;;;;;;;;4981980;28;19922;-64
2023/07/16 00:39:30;;;;;;;;;;;;;;;;;;4982511;28;19930;-64
2023/07/16 00:41:56;;;;;;;;;;;;;;;;;;4990641;28;19937;-64
2023/07/16 00:44:23;;;;;;;;;;;;;;;;;;4983201;28;19926;-64
2023/07/16 00:46:50;;;;;;;;;;;;;;;;;;4983792;28;20378;-64
2023/07/16 00:49:17;;;;;;;;;;;;;;;;;;4976444;28;20325;-63
2023/07/16 00:51:44;;;;;;;;;;;;;;;;;;4984529;28;19930;-65
2023/07/16 00:54:11;;;;;;;;;;;;;;;;;;4987330;28;19922;-64
2023/07/16 00:56:38;;;;;;;;;;;;;;;;;;4989512;28;20382;-64
2023/07/16 00:59:04;;;;;;;;;;;;;;;;;;4990478;28;19925;-64
2023/07/16 01:01:31;;;;;;;;;;;;;;;;;;4994643;28;19929;-64
2023/07/16 01:03:58;;;;;;;;;;;;;;;;;;4989520;28;19926;-65
2023/07/16 01:06:25;;;;;;;;;;;;;;;;;;4988195;28;19930;-62
2023/07/16 01:08:52;;;;;;;;;;;;;;;;;;4991272;28;19926;-62
2023/07/16 01:11:19;;;;;;;;;;;;;;;;;;4996331;28;20441;-62
2023/07/16 01:13:46;;;;;;;;;;;;;;;;;;4988704;28;19989;-63
2023/07/16 01:16:12;;;;;;;;;;;;;;;;;;4991443;28;19930;-62
2023/07/16 01:18:39;;;;;;;;;;;;;;;;;;4987751;28;19930;-63
2023/07/16 01:21:06;;;;;;;;;;;;;;;;;;4989378;28;19922;-63
2023/07/16 01:23:33;;;;;;;;;;;;;;;;;;4989771;28;19922;-63
2023/07/16 01:26:00;;;;;;;;;;;;;;;;;;4987928;28;19926;-63
2023/07/16 01:28:27;;;;;;;;;;;;;;;;;;4988467;28;20382;-62
2023/07/16 01:30:54;;;;;;;;;;;;;;;;;;4992662;28;20493;-62
2023/07/16 01:33:21;;;;;;;;;;;;;;;;;;4988734;28;19929;-62
2023/07/16 01:35:47;;;;;;;;;;;;;;;;;;4989784;28;20038;-62
2023/07/16 01:38:16;;;;;;;;;;;;;;;;;;4979217;28;19977;-61
2023/07/16 01:40:43;;;;;;;;;;;;;;;;;;4986602;28;19922;-61
2023/07/16 01:43:10;;;;;;;;;;;;;;;;;;4987087;28;19922;-63
2023/07/16 01:45:37;;;;;;;;;;;;;;;;;;4988497;28;20383;-64
2023/07/16 01:48:04;;;;;;;;;;;;;;;;;;4990312;28;20337;-63
2023/07/16 01:50:31;;;;;;;;;;;;;;;;;;4989619;28;19973;-62
2023/07/16 01:52:58;;;;;;;;;;;;;;;;;;4989483;28;19972;-63
2023/07/16 01:55:25;;;;;;;;;;;;;;;;;;4987486;28;20326;-62
2023/07/16 01:57:52;;;;;;;;;;;;;;;;;;4988637;28;20000;-63
2023/07/16 02:00:19;;;;;;;;;;;;;;;;;;4989824;28;19922;-63
2023/07/16 02:02:46;;;;;;;;;;;;;;;;;;4985983;28;19926;-63
2023/07/16 02:05:13;;;;;;;;;;;;;;;;;;4984486;28;19968;-64
2023/07/16 02:07:40;;;;;;;;;;;;;;;;;;4984270;28;19968;-63
2023/07/16 02:10:07;;;;;;;;;;;;;;;;;;4988200;28;20358;-64
2023/07/16 02:12:34;;;;;;;;;;;;;;;;;;4987659;28;19999;-63
2023/07/16 02:15:01;;;;;;;;;;;;;;;;;;4984887;28;20060;-63
2023/07/16 02:17:27;;;;;;;;;;;;;;;;;;4985360;28;19922;-62
2023/07/16 02:19:54;;;;;;;;;;;;;;;;;;4986328;28;19926;-62
2023/07/16 02:22:21;;;;;;;;;;;;;;;;;;4982862;28;19984;-63
2023/07/16 02:24:48;;;;;;;;;;;;;;;;;;4986311;28;19922;-63
2023/07/16 02:27:15;;;;;;;;;;;;;;;;;;4985051;28;20346;-63
2023/07/16 02:29:42;;;;;;;;;;;;;;;;;;4984036;28;19926;-63
2023/07/16 02:32:08;;;;;;;;;;;;;;;;;;4988142;28;19968;-62
2023/07/16 02:34:35;;;;;;;;;;;;;;;;;;4985434;28;19985;-63
2023/07/16 02:37:03;;;;;;;;;;;;;;;;;;4986879;28;19922;-63
2023/07/16 02:39:29;;;;;;;;;;;;;;;;;;4985320;28;19929;-62
2023/07/16 02:41:56;;;;;;;;;;;;;;;;;;4988184;28;19924;-64
2023/07/16 02:44:23;;;;;;;;;;;;;;;;;;4987621;28;20306;-64
2023/07/16 02:46:50;;;;;;;;;;;;;;;;;;4987219;28;19980;-64
2023/07/16 02:49:17;;;;;;;;;;;;;;;;;;4983652;28;19929;-64
2023/07/16 02:51:44;;;;;;;;;;;;;;;;;;4984951;28;19926;-63
2023/07/16 02:54:11;;;;;;;;;;;;;;;;;;4983292;28;19977;-64
2023/07/16 02:56:38;;;;;;;;;;;;;;;;;;4975023;28;19925;-64
2023/07/16 02:59:05;;;;;;;;;;;;;;;;;;4975341;28;19988;-64
2023/07/16 03:01:32;;;;;;;;;;;;;;;;;;4982525;28;19968;-64
2023/07/16 03:03:58;;;;;;;;;;;;;;;;;;4985029;28;20298;-64
2023/07/16 03:06:25;;;;;;;;;;;;;;;;;;4982093;28;19925;-64
2023/07/16 03:08:52;;;;;;;;;;;;;;;;;;4983264;28;19926;-64
2023/07/16 03:11:19;;;;;;;;;;;;;;;;;;4990229;28;19968;-64
2023/07/16 03:13:46;;;;;;;;;;;;;;;;;;4987402;28;19944;-64
2023/07/16 03:16:13;;;;;;;;;;;;;;;;;;4984747;28;19968;-63
2023/07/16 03:18:40;;;;;;;;;;;;;;;;;;4985697;28;19995;-63
2023/07/16 03:21:07;;;;;;;;;;;;;;;;;;4983959;28;19929;-64
2023/07/16 03:23:34;;;;;;;;;;;;;;;;;;4984178;28;19922;-64
2023/07/16 03:26:01;;;;;;;;;;;;;;;;;;4986423;28;19922;-64
2023/07/16 03:28:28;;;;;;;;;;;;;;;;;;4986700;28;20359;-64
2023/07/16 03:30:55;;;;;;;;;;;;;;;;;;4987100;28;20338;-64
2023/07/16 03:33:22;;;;;;;;;;;;;;;;;;4985538;28;19929;-63
2023/07/16 03:35:48;;;;;;;;;;;;;;;;;;4984204;28;19976;-64
2023/07/16 03:38:15;;;;;;;;;;;;;;;;;;4982180;28;19941;-63
2023/07/16 03:40:42;;;;;;;;;;;;;;;;;;4985087;28;19929;-64
2023/07/16 03:43:09;;;;;;;;;;;;;;;;;;4986766;28;20282;-64
2023/07/16 03:45:36;;;;;;;;;;;;;;;;;;4984761;28;19928;-64
2023/07/16 03:48:03;;;;;;;;;;;;;;;;;;4984650;28;19968;-64
2023/07/16 03:50:30;;;;;;;;;;;;;;;;;;4982844;28;19973;-64
2023/07/16 03:52:57;;;;;;;;;;;;;;;;;;4986667;28;20298;-64
2023/07/16 03:55:24;;;;;;;;;;;;;;;;;;4985090;28;20025;-63
2023/07/16 03:57:51;;;;;;;;;;;;;;;;;;4986890;28;19991;-63
2023/07/16 04:00:17;;;;;;;;;;;;;;;;;;4985834;28;19929;-64
2023/07/16 04:02:45;;;;;;;;;;;;;;;;;;4979952;28;19972;-64
2023/07/16 04:05:12;;;;;;;;;;;;;;;;;;4986433;28;20623;-64
2023/07/16 04:07:39;;;;;;;;;;;;;;;;;;4987077;28;19922;-64
2023/07/16 04:10:05;;;;;;;;;;;;;;;;;;4982577;28;19922;-64
2023/07/16 04:12:32;;;;;;;;;;;;;;;;;;4986623;28;19969;-63
2023/07/16 04:14:59;;;;;;;;;;;;;;;;;;4982239;28;19922;-64
2023/07/16 04:17:26;;;;;;;;;;;;;;;;;;4985942;28;19921;-63
2023/07/16 04:19:53;;;;;;;;;;;;;;;;;;4980737;28;20367;-64
2023/07/16 04:22:20;;;;;;;;;;;;;;;;;;4984133;28;19922;-64
2023/07/16 04:24:47;;;;;;;;;;;;;;;;;;4983100;28;19984;-64
2023/07/16 04:27:13;;;;;;;;;;;;;;;;;;4980710;28;19985;-64
2023/07/16 04:29:40;;;;;;;;;;;;;;;;;;4989852;28;19928;-64
2023/07/16 04:32:07;;;;;;;;;;;;;;;;;;4983913;28;19926;-64
2023/07/16 04:34:34;;;;;;;;;;;;;;;;;;4984583;28;19929;-63
2023/07/16 04:37:01;;;;;;;;;;;;;;;;;;4981711;28;20435;-64
2023/07/16 04:39:28;;;;;;;;;;;;;;;;;;4987012;28;20400;-63
2023/07/16 04:41:55;;;;;;;;;;;;;;;;;;4981692;28;19926;-63
2023/07/16 04:44:22;;;;;;;;;;;;;;;;;;4984286;28;19922;-64
2023/07/16 04:46:49;;;;;;;;;;;;;;;;;;4981770;28;19929;-63
2023/07/16 04:49:16;;;;;;;;;;;;;;;;;;4980883;28;20379;-64
2023/07/16 04:51:43;;;;;;;;;;;;;;;;;;4980839;28;19928;-64
2023/07/16 04:54:09;;;;;;;;;;;;;;;;;;4979847;28;19921;-63
2023/07/16 04:56:37;;;;;;;;;;;;;;;;;;4983640;28;19925;-63
2023/07/16 04:59:03;;;;;;;;;;;;;;;;;;4981841;28;19930;-63
2023/07/16 05:01:30;;;;;;;;;;;;;;;;;;4980893;28;19922;-63
2023/07/16 05:03:57;;;;;;;;;;;;;;;;;;4972404;28;20307;-63
2023/07/16 05:06:24;;;;;;;;;;;;;;;;;;4981753;28;19930;-63
2023/07/16 05:08:51;;;;;;;;;;;;;;;;;;4984173;28;19925;-63
2023/07/16 05:11:18;;;;;;;;;;;;;;;;;;4986729;28;19922;-63
2023/07/16 05:13:45;;;;;;;;;;;;;;;;;;4983244;28;20379;-63
2023/07/16 05:16:12;;;;;;;;;;;;;;;;;;4980058;28;19929;-63
2023/07/16 05:18:38;;;;;;;;;;;;;;;;;;4982479;28;19972;-63
2023/07/16 05:21:05;;;;;;;;;;;;;;;;;;4980950;28;19922;-63
2023/07/16 05:23:32;;;;;;;;;;;;;;;;;;4981952;28;19921;-63
2023/07/16 05:25:59;;;;;;;;;;;;;;;;;;4983297;28;19997;-63
2023/07/16 05:28:26;;;;;;;;;;;;;;;;;;4976308;28;20466;-64
2023/07/16 05:30:53;;;;;;;;;;;;;;;;;;4986989;28;19984;-63
2023/07/16 05:33:20;;;;;;;;;;;;;;;;;;4985379;28;19928;-63
2023/07/16 05:35:46;;;;;;;;;;;;;;;;;;4981297;28;19934;-63
2023/07/16 05:38:13;;;;;;;;;;;;;;;;;;4986666;28;19921;-64
2023/07/16 05:40:40;;;;;;;;;;;;;;;;;;4984459;28;19922;-63
2023/07/16 05:43:07;;;;;;;;;;;;;;;;;;4991478;28;19925;-63
2023/07/16 05:45:34;;;;;;;;;;;;;;;;;;4978882;28;19933;-64
2023/07/16 05:48:01;;;;;;;;;;;;;;;;;;4986256;28;20328;-63
2023/07/16 05:50:28;;;;;;;;;;;;;;;;;;4986606;28;19929;-64
2023/07/16 05:52:55;;;;;;;;;;;;;;;;;;4983072;28;19972;-63
2023/07/16 05:55:22;;;;;;;;;;;;;;;;;;4985892;28;20325;-64
2023/07/16 05:57:48;;;;;;;;;;;;;;;;;;4987061;28;19922;-63
2023/07/16 06:00:15;;;;;;;;;;;;;;;;;;4984359;28;19973;-63
2023/07/16 06:02:42;;;;;;;;;;;;;;;;;;4980412;28;19968;-63
2023/07/16 06:05:09;;;;;;;;;;;;;;;;;;4984048;28;19929;-63
2023/07/16 06:07:36;;;;;;;;;;;;;;;;;;4984641;28;20453;-63
2023/07/16 06:10:03;;;;;;;;;;;;;;;;;;4984584;28;19936;-63
2023/07/16 06:12:30;;;;;;;;;;;;;;;;;;4987128;28;19968;-63
2023/07/16 06:14:57;;;;;;;;;;;;;;;;;;4985989;28;19929;-63
2023/07/16 06:17:24;;;;;;;;;;;;;;;;;;4986427;28;19968;-63
2023/07/16 06:19:51;;;;;;;;;;;;;;;;;;4985463;28;20441;-63
2023/07/16 06:22:18;;;;;;;;;;;;;;;;;;4983478;28;20008;-63
2023/07/16 06:24:45;;;;;;;;;;;;;;;;;;4983237;28;20426;-63
2023/07/16 06:27:12;;;;;;;;;;;;;;;;;;4985862;28;19930;-63
2023/07/16 06:29:39;;;;;;;;;;;;;;;;;;4986485;28;19929;-63
2023/07/16 06:32:06;;;;;;;;;;;;;;;;;;4983507;28;19930;-62
2023/07/16 06:34:32;;;;;;;;;;;;;;;;;;4988199;28;19928;-63
2023/07/16 06:36:59;;;;;;;;;;;;;;;;;;4984361;28;19922;-64
2023/07/16 06:39:26;;;;;;;;;;;;;;;;;;4983303;28;20330;-63
2023/07/16 06:41:53;;;;;;;;;;;;;;;;;;4985068;28;19929;-63
2023/07/16 06:44:20;;;;;;;;;;;;;;;;;;4983733;28;20036;-63
2023/07/16 06:46:47;;;;;;;;;;;;;;;;;;4985161;28;19973;-63
2023/07/16 06:49:14;;;;;;;;;;;;;;;;;;4983580;28;19922;-63
2023/07/16 06:51:40;;;;;;;;;;;;;;;;;;4983141;28;19929;-63
2023/07/16 06:54:07;;;;;;;;;;;;;;;;;;4984926;28;19968;-63
2023/07/16 06:56:34;;;;;;;;;;;;;;;;;;4985158;28;19965;-62
2023/07/16 06:59:01;;;;;;;;;;;;;;;;;;4982226;28;19977;-65
2023/07/16 07:01:28;;;;;;;;;;;;;;;;;;4984385;28;19976;-64
2023/07/16 07:03:55;;;;;;;;;;;;;;;;;;4989349;28;20001;-63
2023/07/16 07:06:22;;;;;;;;;;;;;;;;;;4987066;28;19984;-63
2023/07/16 07:08:49;;;;;;;;;;;;;;;;;;4990550;28;20287;-62
2023/07/16 07:11:16;;;;;;;;;;;;;;;;;;4987956;28;19972;-60
2023/07/16 07:13:43;;;;;;;;;;;;;;;;;;4984791;28;19922;-65
2023/07/16 07:16:10;;;;;;;;;;;;;;;;;;4987396;28;19922;-62
2023/07/16 07:18:37;;;;;;;;;;;;;;;;;;4986114;28;20306;-63
2023/07/16 07:21:04;;;;;;;;;;;;;;;;;;4989332;28;19921;-63
2023/07/16 07:23:31;;;;;;;;;;;;;;;;;;4985991;28;19928;-64
2023/07/16 07:25:58;;;;;;;;;;;;;;;;;;4986655;28;20435;-62
2023/07/16 07:28:25;;;;;;;;;;;;;;;;;;4982416;28;19945;-66
2023/07/16 07:30:51;;;;;;;;;;;;;;;;;;4983582;28;19969;-65
2023/07/16 07:33:18;;;;;;;;;;;;;;;;;;4982987;28;19969;-66
2023/07/16 07:35:45;;;;;;;;;;;;;;;;;;4985548;28;19922;-64
2023/07/16 07:38:12;;;;;;;;;;;;;;;;;;4983694;28;20366;-63
2023/07/16 07:40:39;;;;;;;;;;;;;;;;;;4986625;28;19922;-63
2023/07/16 07:43:06;;;;;;;;;;;;;;;;;;4987954;28;19942;-64
2023/07/16 07:45:33;;;;;;;;;;;;;;;;;;4982121;28;19926;-63
2023/07/16 07:48:00;;;;;;;;;;;;;;;;;;4973658;28;19930;-63
2023/07/16 07:50:29;;;;;;;;;;;;;;;;;;4973511;28;20445;-64
2023/07/16 07:52:55;;;;;;;;;;;;;;;;;;4979876;28;20012;-64
2023/07/16 07:55:22;;;;;;;;;;;;;;;;;;4983323;28;19921;-64
2023/07/16 07:57:49;;;;;;;;;;;;;;;;;;4984541;28;19922;-64
2023/07/16 08:00:16;;;;;;;;;;;;;;;;;;4981587;28;19976;-64
2023/07/16 08:02:43;;;;;;;;;;;;;;;;;;4982347;28;19926;-66
2023/07/16 08:05:10;;;;;;;;;;;;;;;;;;4984347;28;19922;-66
2023/07/16 08:07:37;;;;;;;;;;;;;;;;;;4982824;28;19976;-63
2023/07/16 08:10:03;;;;;;;;;;;;;;;;;;4979971;28;19926;-63
2023/07/16 08:12:30;;;;;;;;;;;;;;;;;;4983275;28;20371;-65
2023/07/16 08:14:57;;;;;;;;;;;;;;;;;;4983268;28;19928;-66
2023/07/16 08:17:24;;;;;;;;;;;;;;;;;;4981707;28;19922;-65
2023/07/16 08:19:51;;;;;;;;;;;;;;;;;;4982876;28;20411;-63
2023/07/16 08:22:18;;;;;;;;;;;;;;;;;;4984153;28;20361;-62
2023/07/16 08:24:45;;;;;;;;;;;;;;;;;;4980471;28;19984;-63
2023/07/16 08:27:11;;;;;;;;;;;;;;;;;;4982885;28;19976;-63
2023/07/16 08:29:38;;;;;;;;;;;;;;;;;;4981206;28;19930;-60
2023/07/16 08:32:05;;;;;;;;;;;;;;;;;;4981203;28;19922;-63
2023/07/16 08:34:32;;;;;;;;;;;;;;;;;;4983767;28;19921;-63
2023/07/16 08:36:59;;;;;;;;;;;;;;;;;;4981009;28;20690;-65
2023/07/16 08:39:26;;;;;;;;;;;;;;;;;;4981211;28;20033;-64
2023/07/16 08:41:53;;;;;;;;;;;;;;;;;;4983768;28;19929;-64
2023/07/16 08:44:19;;;;;;;;;;;;;;;;;;4982698;28;19933;-63
2023/07/16 08:46:46;;;;;;;;;;;;;;;;;;4983886;28;19968;-62
2023/07/16 08:49:13;;;;;;;;;;;;;;;;;;4981665;28;19976;-62
2023/07/16 08:51:40;;;;;;;;;;;;;;;;;;4981753;28;20379;-62
2023/07/16 08:54:07;;;;;;;;;;;;;;;;;;4987052;28;20469;-63
2023/07/16 08:56:34;;;;;;;;;;;;;;;;;;4981934;28;20380;-62
2023/07/16 08:59:01;;;;;;;;;;;;;;;;;;4981212;28;20065;-61
2023/07/16 09:01:28;;;;;;;;;;;;;;;;;;4982952;28;19984;-61
2023/07/16 09:03:55;;;;;;;;;;;;;;;;;;4983201;28;19922;-62
2023/07/16 09:06:22;;;;;;;;;;;;;;;;;;4980767;28;19925;-63
2023/07/16 09:08:48;;;;;;;;;;;;;;;;;;4984379;28;20383;-62
2023/07/16 09:11:20;;;;;;;;;;;;;;;;;;4984850;28;20564;-63
2023/07/16 09:13:47;;;;;;;;;;;;;;;;;;4986661;28;19930;-64
2023/07/16 09:16:16;;;;;;;;;;;;;;;;;;4987214;28;19944;-63
2023/07/16 09:18:43;;;;;;;;;;;;;;;;;;4987105;28;20000;-62
2023/07/16 09:21:09;;;;;;;;;;;;;;;;;;4987189;28;19984;-62
2023/07/16 09:23:36;;;;;;;;;;;;;;;;;;4984603;28;19941;-65
2023/07/16 09:26:04;;;;;;;;;;;;;;;;;;4985584;28;20845;-64
2023/07/16 09:28:30;;;;;;;;;;;;;;;;;;4988158;28;20012;-62
2023/07/16 09:30:57;;;;;;;;;;;;;;;;;;4984533;28;19977;-62
2023/07/16 09:33:25;;;;;;;;;;;;;;;;;;4984292;28;19968;-63
2023/07/16 09:35:52;;;;;;;;;;;;;;;;;;4975652;28;19969;-61
2023/07/16 09:38:19;;;;;;;;;;;;;;;;;;4975885;28;20319;-66
2023/07/16 09:40:46;;;;;;;;;;;;;;;;;;4983143;28;19922;-65
2023/07/16 09:43:13;;;;;;;;;;;;;;;;;;4990679;28;19922;-65
2023/07/16 09:45:40;;;;;;;;;;;;;;;;;;4985115;28;20383;-68
2023/07/16 09:48:08;;;;;;;;;;;;;;;;;;4987275;28;20314;-66
2023/07/16 09:50:35;;;;;;;;;;;;;;;;;;4988914;28;19956;-63
2023/07/16 09:53:03;;;;;;;;;;;;;;;;;;4988485;28;19922;-63
2023/07/16 09:55:30;;;;;;;;;;;;;;;;;;4985653;28;20012;-63
2023/07/16 09:57:57;;;;;;;;;;;;;;;;;;4990411;28;19922;-63
2023/07/16 10:00:24;;;;;;;;;;;;;;;;;;4984589;28;19922;-62
2023/07/16 10:02:51;;;;;;;;;;;;;;;;;;4983561;28;19922;-63
2023/07/16 10:05:18;;;;;;;;;;;;;;;;;;4983967;28;20363;-63
2023/07/16 10:07:45;;;;;;;;;;;;;;;;;;4985003;28;20453;-63
2023/07/16 10:10:12;;;;;;;;;;;;;;;;;;4986760;28;19925;-62
2023/07/16 10:12:39;;;;;;;;;;;;;;;;;;4991059;28;19933;-63
2023/07/16 10:15:06;;;;;;;;;;;;;;;;;;4988884;28;19976;-63
2023/07/16 10:17:33;;;;;;;;;;;;;;;;;;4975585;28;20295;-63
2023/07/16 10:20:00;;;;;;;;;;;;;;;;;;4975544;28;19988;-62
2023/07/16 10:22:27;;;;;;;;;;;;;;;;;;4975566;28;19953;-63
2023/07/16 10:24:54;;;;;;;;;;;;;;;;;;4978315;28;19960;-63
2023/07/16 10:27:21;;;;;;;;;;;;;;;;;;4985980;28;19921;-63
2023/07/16 10:29:47;;;;;;;;;;;;;;;;;;4986966;28;19977;-63
2023/07/16 10:32:14;;;;;;;;;;;;;;;;;;4984736;28;19922;-62
2023/07/16 10:34:41;;;;;;;;;;;;;;;;;;4986190;28;19984;-63
2023/07/16 10:37:08;;;;;;;;;;;;;;;;;;4984960;28;20001;-62
2023/07/16 10:39:35;;;;;;;;;;;;;;;;;;4983943;28;19922;-62
2023/07/16 10:42:02;;;;;;;;;;;;;;;;;;4991029;28;20279;-63
2023/07/16 10:44:28;;;;;;;;;;;;;;;;;;4984434;28;19982;-63
2023/07/16 10:46:55;;;;;;;;;;;;;;;;;;4985954;28;19964;-62
2023/07/16 10:49:22;;;;;;;;;;;;;;;;;;4984674;28;20470;-63
2023/07/16 10:51:49;;;;;;;;;;;;;;;;;;4985674;28;19926;-62
2023/07/16 10:54:16;;;;;;;;;;;;;;;;;;4983968;28;19969;-62
2023/07/16 10:56:43;;;;;;;;;;;;;;;;;;4989098;28;20398;-63
2023/07/16 10:59:10;;;;;;;;;;;;;;;;;;4988146;28;20240;-63
2023/07/16 11:01:37;;;;;;;;;;;;;;;;;;4984673;28;19922;-62
2023/07/16 11:04:04;;;;;;;;;;;;;;;;;;4988053;28;19977;-63
2023/07/16 11:06:31;;;;;;;;;;;;;;;;;;4988998;28;19922;-63
2023/07/16 11:08:57;;;;;;;;;;;;;;;;;;4986994;28;19934;-63
2023/07/16 11:11:24;;;;;;;;;;;;;;;;;;4987900;28;19930;-62
2023/07/16 11:13:51;;;;;;;;;;;;;;;;;;4984323;28;20450;-63
2023/07/16 11:16:18;;;;;;;;;;;;;;;;;;4979890;28;20330;-64
2023/07/16 11:18:45;;;;;;;;;;;;;;;;;;4990675;28;19921;-63
2023/07/16 11:21:12;;;;;;;;;;;;;;;;;;4986197;28;19921;-70
2023/07/16 11:23:39;;;;;;;;;;;;;;;;;;4987991;28;20294;-72
2023/07/16 11:26:06;;;;;;;;;;;;;;;;;;4986622;28;20421;-67
2023/07/16 11:28:33;;;;;;;;;;;;;;;;;;4981197;28;19984;-67
2023/07/16 11:31:00;;;;;;;;;;;;;;;;;;4988030;28;19926;-68
2023/07/16 11:33:26;;;;;;;;;;;;;;;;;;4992494;28;19926;-67
2023/07/16 11:35:54;;;;;;;;;;;;;;;;;;4983175;28;20298;-68
2023/07/16 11:38:21;;;;;;;;;;;;;;;;;;4984912;28;19974;-67
2023/07/16 11:40:48;;;;;;;;;;;;;;;;;;4986950;28;19921;-67
2023/07/16 11:43:15;;;;;;;;;;;;;;;;;;4986953;28;19969;-67
2023/07/16 11:45:42;;;;;;;;;;;;;;;;;;4977766;28;19926;-67
2023/07/16 11:48:09;;;;;;;;;;;;;;;;;;4987695;28;20344;-68
2023/07/16 11:50:36;;;;;;;;;;;;;;;;;;4983394;28;19922;-67
2023/07/16 11:53:03;;;;;;;;;;;;;;;;;;4982842;28;20383;-67
2023/07/16 11:55:30;;;;;;;;;;;;;;;;;;4983528;28;19926;-67
2023/07/16 11:57:59;;;;;;;;;;;;;;;;;;4988646;28;19926;-67
2023/07/16 12:00:26;;;;;;;;;;;;;;;;;;4979400;28;19922;-66
2023/07/16 12:02:53;;;;;;;;;;;;;;;;;;4980742;28;19921;-67
2023/07/16 12:05:19;;;;;;;;;;;;;;;;;;4982316;28;19957;-70
2023/07/16 12:07:46;;;;;;;;;;;;;;;;;;4983648;28;20422;-72
2023/07/16 12:10:19;;;;;;;;;;;;;;;;;;4988539;28;19930;-72
2023/07/16 12:12:46;;;;;;;;;;;;;;;;;;4988134;28;20314;-66
2023/07/16 12:15:13;;;;;;;;;;;;;;;;;;4986729;28;19925;-71
2023/07/16 12:17:40;;;;;;;;;;;;;;;;;;4981545;28;19926;-70
2023/07/16 12:20:07;;;;;;;;;;;;;;;;;;4988400;28;19929;-71
2023/07/16 12:22:34;;;;;;;;;;;;;;;;;;4984074;28;19984;-68
2023/07/16 12:25:01;;;;;;;;;;;;;;;;;;4980083;28;19921;-65
2023/07/16 12:27:27;;;;;;;;;;;;;;;;;;4979813;28;19929;-66
2023/07/16 12:29:54;;;;;;;;;;;;;;;;;;4982174;28;19929;-64
2023/07/16 12:32:21;;;;;;;;;;;;;;;;;;4984988;28;19922;-65
2023/07/16 12:34:48;;;;;;;;;;;;;;;;;;4979994;28;19921;-65
2023/07/16 12:37:16;;;;;;;;;;;;;;;;;;4979731;28;19926;-67
2023/07/16 12:39:43;;;;;;;;;;;;;;;;;;4983915;28;19922;-65
2023/07/16 12:42:10;;;;;;;;;;;;;;;;;;4986358;28;19988;-66
2023/07/16 12:44:37;;;;;;;;;;;;;;;;;;4979653;28;19922;-66
2023/07/16 12:47:05;;;;;;;;;;;;;;;;;;4982709;28;20382;-67
2023/07/16 12:49:32;;;;;;;;;;;;;;;;;;4980917;28;19949;-66
2023/07/16 12:51:58;;;;;;;;;;;;;;;;;;4984118;28;19926;-66
2023/07/16 12:54:25;;;;;;;;;;;;;;;;;;4985908;28;21329;-67
2023/07/16 12:56:52;;;;;;;;;;;;;;;;;;4981561;28;19922;-68
2023/07/16 12:59:19;;;;;;;;;;;;;;;;;;4976429;28;19921;-68
2023/07/16 13:01:46;;;;;;;;;;;;;;;;;;4983508;28;19926;-67
2023/07/16 13:04:13;;;;;;;;;;;;;;;;;;4989173;28;19929;-68
2023/07/16 13:06:40;;;;;;;;;;;;;;;;;;4985294;28;19976;-67
2023/07/16 13:09:07;;;;;;;;;;;;;;;;;;4985034;28;19927;-68
2023/07/16 13:11:34;;;;;;;;;;;;;;;;;;4989665;28;19930;-68
2023/07/16 13:14:01;;;;;;;;;;;;;;;;;;4983585;28;20425;-68
2023/07/16 13:16:27;;;;;;;;;;;;;;;;;;4981873;28;19922;-68
2023/07/16 13:18:54;;;;;;;;;;;;;;;;;;4984616;28;19921;-68
2023/07/16 13:21:21;;;;;;;;;;;;;;;;;;4984266;28;19929;-68
2023/07/16 13:23:48;;;;;;;;;;;;;;;;;;4987156;28;19922;-67
2023/07/16 13:26:15;;;;;;;;;;;;;;;;;;4986397;28;19969;-68
2023/07/16 13:28:42;;;;;;;;;;;;;;;;;;4981257;28;20338;-67
2023/07/16 13:31:09;;;;;;;;;;;;;;;;;;4985783;28;19921;-67
2023/07/16 13:33:35;;;;;;;;;;;;;;;;;;4982458;28;19976;-68
2023/07/16 13:36:04;;;;;;;;;;;;;;;;;;4978851;28;19929;-68
2023/07/16 13:38:31;;;;;;;;;;;;;;;;;;4982533;28;19925;-67
2023/07/16 13:40:58;;;;;;;;;;;;;;;;;;4985548;28;20272;-68
2023/07/16 13:43:25;;;;;;;;;;;;;;;;;;4988140;28;19922;-68
2023/07/16 13:45:51;;;;;;;;;;;;;;;;;;4978677;28;19926;-68
2023/07/16 13:48:18;;;;;;;;;;;;;;;;;;4984217;28;19926;-67
2023/07/16 13:50:45;;;;;;;;;;;;;;;;;;4983994;28;19921;-68
2023/07/16 13:53:12;;;;;;;;;;;;;;;;;;4979376;28;19969;-67
2023/07/16 13:55:39;;;;;;;;;;;;;;;;;;4980790;28;19921;-68
2023/07/16 13:58:06;;;;;;;;;;;;;;;;;;4978925;28;19945;-67
2023/07/16 14:00:33;;;;;;;;;;;;;;;;;;4982440;28;19922;-67
2023/07/16 14:03:00;;;;;;;;;;;;;;;;;;4981807;28;19926;-67
2023/07/16 14:05:27;;;;;;;;;;;;;;;;;;4989862;28;20379;-67
2023/07/16 14:07:53;;;;;;;;;;;;;;;;;;4985052;28;19928;-67
2023/07/16 14:10:20;;;;;;;;;;;;;;;;;;4987618;28;19972;-67
2023/07/16 14:12:47;;;;;;;;;;;;;;;;;;4986097;28;20391;-67
2023/07/16 14:15:14;;;;;;;;;;;;;;;;;;4987354;28;19926;-67
2023/07/16 14:17:41;;;;;;;;;;;;;;;;;;4987102;28;19925;-67
2023/07/16 14:20:08;;;;;;;;;;;;;;;;;;4988534;28;19976;-69
2023/07/16 14:22:35;;;;;;;;;;;;;;;;;;4989946;28;19948;-66
2023/07/16 14:25:05;;;;;;;;;;;;;;;;;;4985491;28;20295;-72
2023/07/16 14:27:32;;;;;;;;;;;;;;;;;;4983516;28;19925;-66
2023/07/16 14:29:59;;;;;;;;;;;;;;;;;;4983853;28;20351;-66
2023/07/16 14:32:26;;;;;;;;;;;;;;;;;;4986074;28;19932;-66
2023/07/16 14:34:53;;;;;;;;;;;;;;;;;;4991280;28;19978;-65
2023/07/16 14:37:20;;;;;;;;;;;;;;;;;;4991934;28;19976;-65
2023/07/16 14:39:47;;;;;;;;;;;;;;;;;;4997170;28;19921;-66
2023/07/16 14:42:14;;;;;;;;;;;;;;;;;;4996566;28;20017;-64
2023/07/16 14:44:41;;;;;;;;;;;;;;;;;;4989172;28;19930;-64
2023/07/16 14:47:08;;;;;;;;;;;;;;;;;;4984533;28;20334;-65
2023/07/16 14:49:35;;;;;;;;;;;;;;;;;;4996074;28;19925;-64
2023/07/16 14:52:01;;;;;;;;;;;;;;;;;;4985736;28;19926;-65
2023/07/16 14:54:28;;;;;;;;;;;;;;;;;;4987421;28;19932;-66
2023/07/16 14:56:55;;;;;;;;;;;;;;;;;;4990913;28;20042;-65
2023/07/16 14:59:22;;;;;;;;;;;;;;;;;;4993907;28;20563;-65
2023/07/16 15:01:49;;;;;;;;;;;;;;;;;;4989845;28;20457;-66
2023/07/16 15:04:16;;;;;;;;;;;;;;;;;;4983704;28;19922;-66
2023/07/16 15:06:43;;;;;;;;;;;;;;;;;;4991294;28;19921;-67
2023/07/16 15:09:09;;;;;;;;;;;;;;;;;;4988057;28;19928;-68
2023/07/16 15:11:36;;;;;;;;;;;;;;;;;;4988986;28;19922;-64
2023/07/16 15:14:03;;;;;;;;;;;;;;;;;;4988021;28;19926;-63
2023/07/16 15:16:30;;;;;;;;;;;;;;;;;;4989804;28;19922;-64
2023/07/16 15:18:57;;;;;;;;;;;;;;;;;;4984958;28;19922;-65
2023/07/16 15:21:24;;;;;;;;;;;;;;;;;;4986105;28;19979;-64
2023/07/16 15:23:51;;;;;;;;;;;;;;;;;;4991905;28;19922;-64
2023/07/16 15:26:18;;;;;;;;;;;;;;;;;;4993352;28;20021;-62
2023/07/16 15:28:45;;;;;;;;;;;;;;;;;;4981086;28;19977;-62
2023/07/16 15:31:12;;;;;;;;;;;;;;;;;;4984516;28;19925;-63
2023/07/16 15:33:39;;;;;;;;;;;;;;;;;;4980722;28;19922;-66
2023/07/16 15:36:06;;;;;;;;;;;;;;;;;;4983298;28;20390;-66
2023/07/16 15:38:33;;;;;;;;;;;;;;;;;;4988418;28;19995;-66
2023/07/16 15:41:00;;;;;;;;;;;;;;;;;;4988243;28;19922;-65
2023/07/16 15:43:27;;;;;;;;;;;;;;;;;;4984854;28;19973;-65
2023/07/16 15:45:54;;;;;;;;;;;;;;;;;;4982288;28;19921;-66
2023/07/16 15:48:21;;;;;;;;;;;;;;;;;;4977119;28;20069;-65
2023/07/16 15:50:48;;;;;;;;;;;;;;;;;;4982522;28;19996;-65
2023/07/16 15:53:15;;;;;;;;;;;;;;;;;;4985841;28;20438;-65
2023/07/16 15:55:42;;;;;;;;;;;;;;;;;;4985276;28;19921;-63
2023/07/16 15:58:09;;;;;;;;;;;;;;;;;;4987303;28;20010;-66
2023/07/16 16:00:36;;;;;;;;;;;;;;;;;;4983875;28;19944;-65
2023/07/16 16:03:03;;;;;;;;;;;;;;;;;;4982717;28;19922;-65
2023/07/16 16:05:30;;;;;;;;;;;;;;;;;;4983993;28;19922;-65
2023/07/16 16:07:56;;;;;;;;;;;;;;;;;;4984738;28;19925;-66
2023/07/16 16:10:23;;;;;;;;;;;;;;;;;;4990506;28;20559;-64
2023/07/16 16:12:50;;;;;;;;;;;;;;;;;;4983744;28;19988;-65
2023/07/16 16:15:17;;;;;;;;;;;;;;;;;;4986810;28;19922;-66
2023/07/16 16:17:44;;;;;;;;;;;;;;;;;;4985154;28;19921;-66
2023/07/16 16:20:11;;;;;;;;;;;;;;;;;;4985155;28;19926;-65
2023/07/16 16:22:39;;;;;;;;;;;;;;;;;;4981745;28;20314;-67
2023/07/16 16:25:07;;;;;;;;;;;;;;;;;;4986833;28;19922;-66
2023/07/16 16:27:34;;;;;;;;;;;;;;;;;;4982016;28;19921;-67
2023/07/16 16:30:02;;;;;;;;;;;;;;;;;;4980018;28;19926;-66
2023/07/16 16:32:29;;;;;;;;;;;;;;;;;;4983401;28;19925;-67
2023/07/16 16:34:56;;;;;;;;;;;;;;;;;;4983418;28;19921;-66
2023/07/16 16:37:23;;;;;;;;;;;;;;;;;;4979920;28;19922;-66
2023/07/16 16:39:50;;;;;;;;;;;;;;;;;;4984946;28;19926;-65
2023/07/16 16:42:17;;;;;;;;;;;;;;;;;;4982145;28;19921;-65